createdAt,value
2019-05-19T00:01:28.762Z,97404.84
2019-05-19T00:03:55.246Z,97403.28
2019-05-19T00:06:22.918Z,97405.62
2019-05-19T00:08:52.992Z,97413.58
2019-05-19T00:11:19.659Z,97412.05
2019-05-19T00:14:18.406Z,97417.52
2019-05-19T00:16:44.954Z,97407.92
2019-05-19T00:19:25.553Z,97407.00
2019-05-19T00:21:39.920Z,97411.41
2019-05-19T00:24:06.422Z,97407.86
2019-05-19T00:26:33.314Z,97406.72
2019-05-19T00:29:00.492Z,97411.65
2019-05-19T00:31:27.029Z,97416.38
2019-05-19T00:33:53.535Z,97418.50
2019-05-19T00:36:20.280Z,97412.89
2019-05-19T00:38:46.758Z,97410.93
2019-05-19T00:41:14.392Z,97414.66
2019-05-19T00:43:40.868Z,97413.87
2019-05-19T00:46:07.408Z,97408.46
2019-05-19T00:48:34.215Z,97406.55
2019-05-19T00:51:00.811Z,97406.95
2019-05-19T00:53:27.363Z,97408.46
2019-05-19T00:55:54.045Z,97400.19
2019-05-19T00:58:20.814Z,97401.96
2019-05-19T01:00:47.288Z,97401.34
2019-05-19T01:03:14.116Z,97407.49
2019-05-19T01:05:40.635Z,97401.00
2019-05-19T01:08:07.291Z,97401.00
2019-05-19T01:10:33.847Z,97388.20
2019-05-19T01:13:00.618Z,97394.30
2019-05-19T01:15:27.146Z,97391.28
2019-05-19T01:17:53.692Z,97393.34
2019-05-19T01:20:20.390Z,97385.01
2019-05-19T01:22:47.279Z,97386.78
2019-05-19T01:25:14.128Z,97387.73
2019-05-19T01:27:40.736Z,97391.55
2019-05-19T01:30:09.079Z,97386.98
2019-05-19T01:32:35.707Z,97386.77
2019-05-19T01:35:02.403Z,97387.97
2019-05-19T01:37:28.944Z,97383.88
2019-05-19T01:39:55.583Z,97383.64
2019-05-19T01:42:22.181Z,97389.53
2019-05-19T01:44:48.819Z,97384.91
2019-05-19T01:47:15.428Z,97385.03
2019-05-19T01:49:41.903Z,97388.05
2019-05-19T01:52:09.775Z,97389.14
2019-05-19T01:54:36.480Z,97381.38
2019-05-19T01:57:03.012Z,97384.89
2019-05-19T01:59:29.493Z,97380.36
2019-05-19T02:01:56.057Z,97383.73
2019-05-19T02:04:23.127Z,97383.94
2019-05-19T02:06:49.773Z,97386.39
2019-05-19T02:09:16.376Z,97385.14
2019-05-19T02:11:43.125Z,97393.17
2019-05-19T02:14:09.929Z,97395.23
2019-05-19T02:16:36.439Z,97392.61
2019-05-19T02:19:03.136Z,97387.61
2019-05-19T02:21:29.872Z,97385.48
2019-05-19T02:23:56.448Z,97382.10
2019-05-19T02:26:22.954Z,97384.78
2019-05-19T02:28:49.461Z,97385.55
2019-05-19T02:31:15.989Z,97379.20
2019-05-19T02:33:42.539Z,97381.34
2019-05-19T02:36:09.066Z,97380.03
2019-05-19T02:38:35.605Z,97376.38
2019-05-19T02:41:04.045Z,97382.44
2019-05-19T02:43:33.469Z,97379.30
2019-05-19T02:46:00.187Z,97382.84
2019-05-19T02:48:27.352Z,97389.00
2019-05-19T02:50:54.563Z,97379.20
2019-05-19T02:53:21.681Z,97385.88
2019-05-19T02:55:48.858Z,97393.07
2019-05-19T02:58:15.920Z,97393.84
2019-05-19T03:00:54.115Z,97396.28
2019-05-19T03:03:21.263Z,97392.28
2019-05-19T03:05:48.144Z,97393.56
2019-05-19T03:08:14.682Z,97394.57
2019-05-19T03:10:50.654Z,97395.61
2019-05-19T03:13:18.566Z,97399.34
2019-05-19T03:15:45.333Z,97391.84
2019-05-19T03:18:11.992Z,97394.58
2019-05-19T03:20:38.601Z,97394.70
2019-05-19T03:23:05.236Z,97400.39
2019-05-19T03:25:32.094Z,97396.06
2019-05-19T03:27:58.747Z,97393.92
2019-05-19T03:30:32.149Z,97394.64
2019-05-19T03:33:00.498Z,97396.19
2019-05-19T03:35:28.107Z,97405.77
2019-05-19T03:37:54.753Z,97402.02
2019-05-19T03:40:21.609Z,97398.09
2019-05-19T03:42:49.272Z,97400.28
2019-05-19T03:45:20.764Z,97406.03
2019-05-19T03:50:34.439Z,97402.02
2019-05-19T03:53:02.027Z,97403.87
2019-05-19T03:55:28.752Z,97402.02
2019-05-19T03:57:55.426Z,97407.54
2019-05-19T04:00:29.463Z,97406.86
2019-05-19T04:03:00.527Z,97408.31
2019-05-19T04:05:27.568Z,97411.78
2019-05-19T04:07:54.112Z,97407.80
2019-05-19T04:10:21.236Z,97406.34
2019-05-19T04:12:48.266Z,97417.56
2019-05-19T04:15:15.091Z,97416.45
2019-05-19T04:17:44.691Z,97415.41
2019-05-19T04:20:12.027Z,97418.22
2019-05-19T04:22:39.156Z,97417.50
2019-05-19T04:25:05.789Z,97417.97
2019-05-19T04:27:33.390Z,97424.78
2019-05-19T04:29:59.981Z,97413.44
2019-05-19T04:32:37.031Z,97422.09
2019-05-19T04:34:55.020Z,97418.28
2019-05-19T04:37:21.747Z,97422.95
2019-05-19T04:39:48.291Z,97425.82
2019-05-19T04:42:14.995Z,97423.39
2019-05-19T04:44:41.564Z,97424.94
2019-05-19T04:47:08.125Z,97428.20
2019-05-19T04:49:36.016Z,97421.36
2019-05-19T04:52:12.180Z,97419.60
2019-05-19T04:54:38.917Z,97408.63
2019-05-19T04:57:05.517Z,97400.75
2019-05-19T04:59:32.372Z,97408.86
2019-05-19T05:01:59.075Z,97408.64
2019-05-19T05:04:29.114Z,97407.23
2019-05-19T05:06:54.217Z,97404.09
2019-05-19T05:09:21.806Z,97402.87
2019-05-19T05:11:48.474Z,97399.53
2019-05-19T05:14:15.114Z,97397.00
2019-05-19T05:16:41.707Z,97396.85
2019-05-19T05:19:08.891Z,97393.13
2019-05-19T05:21:35.461Z,97393.41
2019-05-19T05:24:02.125Z,97388.52
2019-05-19T05:26:29.284Z,97395.68
2019-05-19T05:28:56.220Z,97390.25
2019-05-19T05:31:22.780Z,97389.38
2019-05-19T05:33:49.713Z,97386.37
2019-05-19T05:36:16.677Z,97392.09
2019-05-19T05:38:43.637Z,97385.58
2019-05-19T05:41:10.419Z,97391.39
2019-05-19T05:43:37.156Z,97388.14
2019-05-19T05:46:03.907Z,97389.41
2019-05-19T05:48:30.525Z,97390.06
2019-05-19T05:50:57.230Z,97387.98
2019-05-19T05:53:24.065Z,97380.46
2019-05-19T05:55:50.861Z,97384.70
2019-05-19T05:58:17.576Z,97380.52
2019-05-19T06:00:44.534Z,97379.07
2019-05-19T06:03:11.886Z,97375.51
2019-05-19T06:05:38.850Z,97383.56
2019-05-19T06:08:05.580Z,97387.41
2019-05-19T06:10:32.347Z,97387.41
2019-05-19T06:12:59.009Z,97385.77
2019-05-19T06:18:17.710Z,97390.36
2019-05-19T06:20:44.887Z,97391.44
2019-05-19T06:23:14.427Z,97391.29
2019-05-19T06:25:41.360Z,97389.22
2019-05-19T06:28:08.222Z,97389.95
2019-05-19T06:30:35.991Z,97384.56
2019-05-19T06:33:03.434Z,97378.44
2019-05-19T06:35:38.458Z,97374.72
2019-05-19T06:38:05.458Z,97380.88
2019-05-19T06:40:32.093Z,97384.03
2019-05-19T06:42:58.849Z,97385.04
2019-05-19T06:45:25.537Z,97378.84
2019-05-19T06:47:52.220Z,97376.28
2019-05-19T06:50:19.061Z,97369.00
2019-05-19T06:52:45.565Z,97372.67
2019-05-19T06:55:13.061Z,97369.33
2019-05-19T06:57:39.799Z,97378.92
2019-05-19T07:00:06.848Z,97367.81
2019-05-19T07:02:33.549Z,97372.83
2019-05-19T07:05:06.229Z,97364.19
2019-05-19T07:07:32.824Z,97367.25
2019-05-19T07:10:01.496Z,97365.75
2019-05-19T07:12:28.067Z,97368.55
2019-05-19T07:14:55.156Z,97371.83
2019-05-19T07:17:21.787Z,97368.88
2019-05-19T07:19:48.723Z,97363.17
2019-05-19T07:22:15.412Z,97358.88
2019-05-19T07:24:44.643Z,97360.05
2019-05-19T07:27:12.363Z,97356.23
2019-05-19T07:29:38.934Z,97360.25
2019-05-19T07:32:05.838Z,97356.41
2019-05-19T07:34:33.035Z,97352.85
2019-05-19T07:37:00.187Z,97355.49
2019-05-19T07:39:27.368Z,97349.37
2019-05-19T07:41:55.298Z,97350.13
2019-05-19T07:44:21.891Z,97354.98
2019-05-19T07:46:52.049Z,97348.14
2019-05-19T07:49:18.884Z,97349.09
2019-05-19T07:51:45.528Z,97351.52
2019-05-19T07:54:13.353Z,97353.06
2019-05-19T07:56:40.222Z,97344.48
2019-05-19T07:59:08.016Z,97353.09
2019-05-19T08:01:34.754Z,97344.37
2019-05-19T08:04:02.760Z,97344.22
2019-05-19T08:06:29.820Z,97343.06
2019-05-19T08:08:56.934Z,97337.36
2019-05-19T08:11:23.739Z,97339.23
2019-05-19T08:13:50.426Z,97336.05
2019-05-19T08:16:17.569Z,97328.77
2019-05-19T08:18:45.233Z,97330.15
2019-05-19T08:21:14.041Z,97327.08
2019-05-19T08:23:41.762Z,97327.34
2019-05-19T08:26:11.846Z,97326.50
2019-05-19T08:28:38.539Z,97325.91
2019-05-19T08:31:05.273Z,97322.90
2019-05-19T08:33:32.471Z,97321.26
2019-05-19T08:36:03.372Z,97321.18
2019-05-19T08:38:30.003Z,97323.53
2019-05-19T08:40:56.647Z,97320.28
2019-05-19T08:43:23.949Z,97328.30
2019-05-19T08:45:50.633Z,97325.45
2019-05-19T08:48:17.239Z,97324.09
2019-05-19T08:50:44.070Z,97322.63
2019-05-19T08:53:10.726Z,97326.29
2019-05-19T08:55:37.288Z,97321.14
2019-05-19T08:58:04.185Z,97323.12
2019-05-19T09:00:34.948Z,97318.08
2019-05-19T09:02:59.227Z,97319.19
2019-05-19T09:05:25.844Z,97313.03
2019-05-19T09:07:52.441Z,97310.23
2019-05-19T09:10:19.479Z,97304.13
2019-05-19T09:12:46.038Z,97312.91
2019-05-19T09:15:13.045Z,97308.55
2019-05-19T09:17:39.521Z,97301.30
2019-05-19T09:20:07.701Z,97300.85
2019-05-19T09:22:34.644Z,97297.64
2019-05-19T09:25:01.840Z,97303.16
2019-05-19T09:27:28.959Z,97305.31
2019-05-19T09:29:55.475Z,97304.81
2019-05-19T09:32:21.983Z,97302.59
2019-05-19T09:34:48.602Z,97300.81
2019-05-19T09:37:15.116Z,97296.33
2019-05-19T09:39:41.649Z,97300.34
2019-05-19T09:42:08.377Z,97302.32
2019-05-19T09:44:34.942Z,97297.64
2019-05-19T09:47:02.561Z,97292.18
2019-05-19T09:49:32.387Z,97297.36
2019-05-19T09:51:59.179Z,97304.11
2019-05-19T09:54:26.261Z,97294.88
2019-05-19T09:56:52.798Z,97295.37
2019-05-19T09:59:24.142Z,97290.84
2019-05-19T10:01:50.896Z,97292.28
2019-05-19T10:04:17.611Z,97287.04
2019-05-19T10:06:44.223Z,97289.83
2019-05-19T10:09:14.853Z,97289.18
2019-05-19T10:12:00.230Z,97285.47
2019-05-19T10:14:26.926Z,97284.61
2019-05-19T10:18:11.631Z,97285.41
2019-05-19T10:20:39.078Z,97280.73
2019-05-19T10:23:05.612Z,97282.08
2019-05-19T10:25:32.114Z,97280.70
2019-05-19T10:27:58.622Z,97279.83
2019-05-19T10:30:25.489Z,97279.52
2019-05-19T10:32:52.141Z,97275.80
2019-05-19T10:35:18.701Z,97270.48
2019-05-19T10:37:45.709Z,97269.88
2019-05-19T10:40:12.896Z,97270.13
2019-05-19T10:42:39.433Z,97268.12
2019-05-19T10:45:06.561Z,97268.27
2019-05-19T10:47:33.436Z,97264.69
2019-05-19T10:50:01.772Z,97264.20
2019-05-19T10:52:28.837Z,97266.88
2019-05-19T10:54:56.542Z,97262.67
2019-05-19T10:57:23.121Z,97273.68
2019-05-19T10:59:49.948Z,97263.71
2019-05-19T11:02:17.775Z,97268.42
2019-05-19T11:04:44.289Z,97261.02
2019-05-19T11:07:10.810Z,97261.78
2019-05-19T11:09:37.644Z,97261.33
2019-05-19T11:12:04.530Z,97265.06
2019-05-19T11:14:31.354Z,97260.34
2019-05-19T11:16:59.188Z,97261.00
2019-05-19T11:19:25.667Z,97262.02
2019-05-19T11:21:52.387Z,97258.72
2019-05-19T11:24:18.924Z,97250.12
2019-05-19T11:26:45.586Z,97248.47
2019-05-19T11:29:12.313Z,97239.05
2019-05-19T11:31:38.911Z,97245.63
2019-05-19T11:34:05.561Z,97241.98
2019-05-19T11:36:32.204Z,97237.97
2019-05-19T11:39:02.337Z,97232.23
2019-05-19T11:41:29.034Z,97229.48
2019-05-19T11:43:55.582Z,97227.55
2019-05-19T11:46:23.497Z,97228.84
2019-05-19T11:48:50.154Z,97232.64
2019-05-19T11:51:16.787Z,97226.94
2019-05-19T11:53:43.578Z,97221.40
2019-05-19T11:56:11.519Z,97225.09
2019-05-19T11:58:38.346Z,97223.41
2019-05-19T12:01:04.851Z,97226.27
2019-05-19T12:03:33.421Z,97223.98
2019-05-19T12:05:59.983Z,97222.14
2019-05-19T12:08:26.560Z,97219.47
2019-05-19T12:10:53.148Z,97213.95
2019-05-19T12:13:19.929Z,97217.95
2019-05-19T12:15:46.506Z,97212.45
2019-05-19T12:18:13.157Z,97210.16
2019-05-19T12:20:39.687Z,97214.81
2019-05-19T12:23:06.509Z,97212.04
2019-05-19T12:25:33.118Z,97215.17
2019-05-19T12:28:00.070Z,97207.94
2019-05-19T12:30:26.679Z,97210.30
2019-05-19T12:32:53.238Z,97211.12
2019-05-19T12:35:21.767Z,97210.77
2019-05-19T12:37:48.457Z,97207.74
2019-05-19T12:40:15.514Z,97212.45
2019-05-19T12:42:42.078Z,97204.37
2019-05-19T12:45:09.998Z,97210.11
2019-05-19T12:47:36.640Z,97199.33
2019-05-19T12:50:03.749Z,97201.35
2019-05-19T12:52:30.622Z,97203.01
2019-05-19T12:54:58.835Z,97208.08
2019-05-19T12:57:26.379Z,97197.63
2019-05-19T12:59:53.298Z,97198.25
2019-05-19T13:02:19.809Z,97197.97
2019-05-19T13:05:03.708Z,97194.21
2019-05-19T13:07:15.015Z,97192.92
2019-05-19T13:09:41.528Z,97182.81
2019-05-19T13:12:08.082Z,97187.19
2019-05-19T13:14:34.829Z,97187.65
2019-05-19T13:17:04.469Z,97188.16
2019-05-19T13:19:31.065Z,97190.18
2019-05-19T13:21:57.589Z,97188.82
2019-05-19T13:24:24.291Z,97194.44
2019-05-19T13:26:56.691Z,97203.37
2019-05-19T13:29:19.156Z,97201.48
2019-05-19T13:31:45.686Z,97207.78
2019-05-19T13:34:12.318Z,97205.38
2019-05-19T13:36:40.368Z,97208.16
2019-05-19T13:39:07.262Z,97205.09
2019-05-19T13:41:34.570Z,97202.23
2019-05-19T13:44:01.670Z,97199.23
2019-05-19T13:46:39.220Z,97189.33
2019-05-19T13:49:06.572Z,97194.66
2019-05-19T13:51:54.980Z,97203.38
2019-05-19T13:54:21.649Z,97214.25
2019-05-19T13:56:48.124Z,97216.21
2019-05-19T13:59:15.147Z,97218.51
2019-05-19T14:01:41.690Z,97209.36
2019-05-19T14:04:08.234Z,97207.75
2019-05-19T14:07:01.039Z,97201.80
2019-05-19T14:09:28.531Z,97200.38
2019-05-19T14:11:55.585Z,97196.79
2019-05-19T14:14:22.190Z,97193.84
2019-05-19T14:16:49.102Z,97194.74
2019-05-19T14:19:15.855Z,97197.92
2019-05-19T14:21:42.648Z,97198.86
2019-05-19T14:24:09.176Z,97206.67
2019-05-19T14:26:35.733Z,97212.08
2019-05-19T14:29:02.590Z,97223.78
2019-05-19T14:31:29.891Z,97230.65
2019-05-19T14:33:56.721Z,97233.05
2019-05-19T14:36:23.755Z,97230.62
2019-05-19T14:39:51.305Z,97236.54
2019-05-19T14:42:36.720Z,97242.08
2019-05-19T14:45:06.692Z,97248.70
2019-05-19T14:47:33.658Z,97258.90
2019-05-19T14:50:02.076Z,97262.90
2019-05-19T14:52:28.620Z,97267.64
2019-05-19T14:54:55.313Z,97265.75
2019-05-19T14:57:24.640Z,97267.20
2019-05-19T14:59:53.173Z,97262.91
2019-05-19T15:02:21.222Z,97258.41
2019-05-19T15:04:47.995Z,97254.55
2019-05-19T15:07:14.684Z,97252.50
2019-05-19T15:09:41.477Z,97242.34
2019-05-19T15:12:08.254Z,97236.53
2019-05-19T15:14:35.264Z,97241.95
2019-05-19T15:17:02.509Z,97240.41
2019-05-19T15:19:29.482Z,97231.07
2019-05-19T15:21:56.215Z,97226.57
2019-05-19T15:24:22.944Z,97228.04
2019-05-19T15:26:49.507Z,97229.96
2019-05-19T15:29:16.052Z,97226.05
2019-05-19T15:31:42.589Z,97222.89
2019-05-19T15:34:09.246Z,97217.34
2019-05-19T15:36:36.281Z,97218.25
2019-05-19T15:39:04.239Z,97213.72
2019-05-19T15:41:30.918Z,97208.23
2019-05-19T15:43:57.432Z,97208.45
2019-05-19T15:46:24.085Z,97211.39
2019-05-19T15:48:50.951Z,97215.33
2019-05-19T15:51:27.852Z,97215.38
2019-05-19T15:53:47.714Z,97216.80
2019-05-19T15:56:15.338Z,97213.16
2019-05-19T15:58:41.870Z,97218.56
2019-05-19T16:01:09.827Z,97209.69
2019-05-19T16:03:37.343Z,97208.17
2019-05-19T16:06:05.458Z,97206.34
2019-05-19T16:08:32.344Z,97200.32
2019-05-19T16:10:58.850Z,97200.53
2019-05-19T16:13:25.706Z,97191.16
2019-05-19T16:15:52.303Z,97201.02
2019-05-19T16:18:18.943Z,97199.88
2019-05-19T16:20:45.767Z,97193.63
2019-05-19T16:23:12.269Z,97196.94
2019-05-19T16:25:38.852Z,97191.32
2019-05-19T16:28:05.445Z,97188.94
2019-05-19T16:30:32.086Z,97184.77
2019-05-19T16:32:58.769Z,97184.45
2019-05-19T16:35:25.764Z,97185.52
2019-05-19T16:37:53.001Z,97191.33
2019-05-19T16:40:20.883Z,97198.50
2019-05-19T16:42:50.459Z,97204.31
2019-05-19T16:45:17.282Z,97206.86
2019-05-19T16:47:47.961Z,97204.17
2019-05-19T16:50:15.543Z,97194.85
2019-05-19T16:52:43.090Z,97193.02
2019-05-19T16:55:24.037Z,97194.36
2019-05-19T16:57:50.701Z,97190.25
2019-05-19T17:00:18.383Z,97187.48
2019-05-19T17:02:45.964Z,97190.39
2019-05-19T17:05:13.004Z,97180.59
2019-05-19T17:07:39.713Z,97184.20
2019-05-19T17:10:06.737Z,97185.88
2019-05-19T17:12:34.566Z,97185.28
2019-05-19T17:15:01.224Z,97183.77
2019-05-19T17:17:28.468Z,97185.59
2019-05-19T17:19:55.951Z,97185.58
2019-05-19T17:22:23.063Z,97189.68
2019-05-19T17:24:49.714Z,97187.02
2019-05-19T17:27:17.370Z,97180.95
2019-05-19T17:29:44.940Z,97183.41
2019-05-19T17:32:15.526Z,97188.09
2019-05-19T17:34:43.306Z,97189.27
2019-05-19T17:37:11.286Z,97182.80
2019-05-19T17:39:41.885Z,97195.48
2019-05-19T17:42:09.321Z,97184.44
2019-05-19T17:44:38.417Z,97188.63
2019-05-19T17:47:05.679Z,97186.36
2019-05-19T17:49:33.890Z,97188.93
2019-05-19T17:52:07.668Z,97190.20
2019-05-19T17:54:36.312Z,97189.46
2019-05-19T17:57:03.018Z,97181.81
2019-05-19T17:59:31.898Z,97186.20
2019-05-19T18:02:00.247Z,97190.33
2019-05-19T18:04:27.974Z,97190.33
2019-05-19T18:06:56.903Z,97191.34
2019-05-19T18:09:25.047Z,97193.34
2019-05-19T18:11:53.756Z,97193.03
2019-05-19T18:14:21.613Z,97193.52
2019-05-19T18:16:49.329Z,97181.20
2019-05-19T18:19:18.886Z,97187.01
2019-05-19T18:21:47.209Z,97187.01
2019-05-19T18:24:17.073Z,97191.66
2019-05-19T18:26:44.537Z,97188.69
2019-05-19T18:29:13.025Z,97188.16
2019-05-19T18:31:45.708Z,97189.17
2019-05-19T18:34:22.004Z,97193.30
2019-05-19T18:36:49.199Z,97194.36
2019-05-19T18:39:29.409Z,97193.57
2019-05-19T18:42:11.333Z,97203.78
2019-05-19T18:44:38.502Z,97199.69
2019-05-19T18:47:13.899Z,97198.44
2019-05-19T18:49:43.682Z,97195.55
2019-05-19T18:52:12.089Z,97197.97
2019-05-19T18:54:40.185Z,97193.04
2019-05-19T18:57:10.110Z,97191.93
2019-05-19T18:59:47.499Z,97188.87
2019-05-19T19:02:14.827Z,97190.68
2019-05-19T19:04:46.426Z,97194.78
2019-05-19T19:07:19.831Z,97195.11
2019-05-19T19:09:49.507Z,97193.11
2019-05-19T19:12:16.160Z,97197.70
2019-05-19T19:14:49.361Z,97203.10
2019-05-19T19:17:16.286Z,97208.50
2019-05-19T19:19:44.125Z,97209.09
2019-05-19T19:22:16.499Z,97210.05
2019-05-19T19:24:45.083Z,97207.88
2019-05-19T19:27:14.036Z,97216.87
2019-05-19T19:29:44.981Z,97214.49
2019-05-19T19:32:13.329Z,97219.24
2019-05-19T19:34:42.226Z,97220.19
2019-05-19T19:37:12.214Z,97236.70
2019-05-19T19:39:42.341Z,97247.34
2019-05-19T19:42:10.884Z,97248.25
2019-05-19T19:44:41.220Z,97237.90
2019-05-19T19:47:09.290Z,97260.25
2019-05-19T19:49:36.115Z,97258.31
2019-05-19T19:52:06.219Z,97257.73
2019-05-19T19:54:43.878Z,97258.21
2019-05-19T19:57:12.872Z,97258.13
2019-05-19T19:59:40.806Z,97251.15
2019-05-19T20:02:07.554Z,97246.80
2019-05-19T20:04:34.294Z,97245.69
2019-05-19T20:07:00.791Z,97249.30
2019-05-19T20:09:27.371Z,97251.92
2019-05-19T20:11:54.562Z,97250.13
2019-05-19T20:14:21.214Z,97260.62
2019-05-19T20:16:47.867Z,97252.67
2019-05-19T20:19:14.403Z,97260.27
2019-05-19T20:21:40.910Z,97258.94
2019-05-19T20:24:07.598Z,97261.61
2019-05-19T20:26:34.436Z,97258.21
2019-05-19T20:29:00.974Z,97249.91
2019-05-19T20:31:31.381Z,97246.32
2019-05-19T20:33:57.285Z,97229.56
2019-05-19T20:36:23.855Z,97215.39
2019-05-19T20:38:50.776Z,97210.78
2019-05-19T20:41:17.459Z,97200.41
2019-05-19T20:43:43.976Z,97209.84
2019-05-19T20:46:10.501Z,97214.22
2019-05-19T20:48:37.431Z,97213.84
2019-05-19T20:51:12.784Z,97211.10
2019-05-19T20:53:41.633Z,97217.62
2019-05-19T20:56:09.160Z,97222.73
2019-05-19T20:58:36.938Z,97224.80
2019-05-19T21:01:07.945Z,97222.16
2019-05-19T21:03:34.465Z,97222.73
2019-05-19T21:06:01.550Z,97220.66
2019-05-19T21:08:28.187Z,97211.87
2019-05-19T21:10:55.850Z,97214.79
2019-05-19T21:13:23.437Z,97212.34
2019-05-19T21:15:49.992Z,97206.27
2019-05-19T21:18:16.795Z,97207.42
2019-05-19T21:20:44.448Z,97207.05
2019-05-19T21:23:11.258Z,97207.52
2019-05-19T21:25:37.788Z,97212.34
2019-05-19T21:28:04.271Z,97214.77
2019-05-19T21:30:31.157Z,97211.37
2019-05-19T21:32:57.649Z,97210.91
2019-05-19T21:35:24.327Z,97215.33
2019-05-19T21:37:50.871Z,97214.78
2019-05-19T21:40:17.772Z,97228.62
2019-05-19T21:42:44.619Z,97229.03
2019-05-19T21:45:11.272Z,97225.27
2019-05-19T21:47:39.060Z,97236.77
2019-05-19T21:50:06.949Z,97231.73
2019-05-19T21:52:33.553Z,97222.77
2019-05-19T21:55:00.040Z,97227.73
2019-05-19T21:57:26.549Z,97224.06
2019-05-19T21:59:53.226Z,97222.55
2019-05-19T22:02:19.689Z,97228.02
2019-05-19T22:04:47.363Z,97230.77
2019-05-19T22:07:22.190Z,97224.75
2019-05-19T22:09:48.775Z,97228.30
2019-05-19T22:12:15.266Z,97227.45
2019-05-19T22:14:42.250Z,97225.09
2019-05-19T22:17:08.979Z,97230.16
2019-05-19T22:19:35.684Z,97233.88
2019-05-19T22:22:02.297Z,97235.06
2019-05-19T22:24:29.019Z,97234.27
2019-05-19T22:26:55.998Z,97230.20
2019-05-19T22:29:22.659Z,97252.60
2019-05-19T22:31:49.135Z,97247.17
2019-05-19T22:34:15.628Z,97245.68
2019-05-19T22:36:42.201Z,97233.40
2019-05-19T22:39:09.853Z,97236.23
2019-05-19T22:41:36.356Z,97227.63
2019-05-19T22:44:02.929Z,97226.44
2019-05-19T22:46:29.551Z,97221.83
2019-05-19T22:48:56.166Z,97217.80
2019-05-19T22:51:22.943Z,97219.31
2019-05-19T22:53:49.468Z,97216.63
2019-05-19T22:56:17.188Z,97220.88
2019-05-19T22:58:43.662Z,97214.45
2019-05-19T23:01:10.132Z,97215.36
2019-05-19T23:03:36.692Z,97209.75
2019-05-19T23:06:03.324Z,97209.99
2019-05-19T23:08:29.837Z,97207.30
2019-05-19T23:10:56.291Z,97208.81
2019-05-19T23:13:22.906Z,97211.67
2019-05-19T23:15:49.468Z,97213.61
2019-05-19T23:18:15.978Z,97218.04
2019-05-19T23:20:42.461Z,97212.23
2019-05-19T23:23:09.040Z,97206.67
2019-05-19T23:25:35.761Z,97214.52
2019-05-19T23:28:02.634Z,97209.80
2019-05-19T23:30:29.146Z,97213.14
2019-05-19T23:32:55.795Z,97210.83
2019-05-19T23:35:22.478Z,97207.69
2019-05-19T23:37:48.990Z,97210.55
2019-05-19T23:40:15.518Z,97217.38
2019-05-19T23:42:42.015Z,97223.84
2019-05-19T23:45:08.678Z,97224.16
2019-05-19T23:47:35.326Z,97230.28
2019-05-19T23:50:01.918Z,97224.25
2019-05-19T23:52:28.322Z,97227.95
2019-05-19T23:54:54.862Z,97231.53
2019-05-19T23:57:22.471Z,97224.47
2019-05-19T23:59:48.980Z,97226.81
